createdAt,value
2022-10-18T00:05:33.789Z,17.22
2022-10-18T00:15:39.063Z,17.18
2022-10-18T00:25:43.023Z,17.21
2022-10-18T00:35:48.410Z,17.14
2022-10-18T00:45:52.008Z,17.18
2022-10-18T00:55:59.307Z,17.26
2022-10-18T01:06:03.035Z,17.43
2022-10-18T01:16:16.664Z,17.08
2022-10-18T01:26:38.244Z,17.12
2022-10-18T01:36:47.811Z,17.06
2022-10-18T01:46:53.326Z,17.07
2022-10-18T01:57:03.376Z,17.09
2022-10-18T02:07:17.446Z,17.01
2022-10-18T02:17:23.789Z,16.99
2022-10-18T02:27:27.802Z,17.02
2022-10-18T02:37:40.259Z,16.87
2022-10-18T02:47:50.314Z,16.92
2022-10-18T02:58:00.657Z,16.93
2022-10-18T03:08:07.332Z,17.23
2022-10-18T03:18:14.359Z,17.01
2022-10-18T03:28:28.134Z,16.84
2022-10-18T03:38:33.258Z,16.79
2022-10-18T03:48:36.947Z,16.81
2022-10-18T03:58:42.169Z,17.34
2022-10-18T04:08:45.810Z,16.99
2022-10-18T04:18:51.182Z,16.95
2022-10-18T04:28:54.801Z,16.69
2022-10-18T04:39:00.279Z,16.62
2022-10-18T04:49:04.372Z,17.02
2022-10-18T04:59:16.370Z,16.50
2022-10-18T05:09:22.301Z,16.42
2022-10-18T05:19:27.593Z,16.70
2022-10-18T05:29:31.655Z,16.38
2022-10-18T05:39:38.104Z,16.36
2022-10-18T05:49:42.481Z,16.42
2022-10-18T05:59:48.162Z,16.43
2022-10-18T06:09:52.131Z,16.55
2022-10-18T06:19:57.595Z,16.58
2022-10-18T06:30:01.250Z,16.53
2022-10-18T06:40:08.232Z,16.49
2022-10-18T06:50:13.001Z,16.55
2022-10-18T07:00:18.547Z,16.61
2022-10-18T07:10:22.263Z,16.61
2022-10-18T07:20:27.529Z,16.69
2022-10-18T07:30:31.374Z,16.82
2022-10-18T07:40:36.489Z,17.11
2022-10-18T07:50:40.188Z,17.17
2022-10-18T08:00:45.449Z,17.32
2022-10-18T08:10:49.148Z,17.56
2022-10-18T08:20:54.074Z,17.77
2022-10-18T08:30:57.829Z,18.14
2022-10-18T08:41:19.142Z,18.07
2022-10-18T08:51:30.838Z,18.00
2022-10-18T09:01:49.959Z,18.18
2022-10-18T09:12:11.293Z,18.69
2022-10-18T09:22:23.080Z,19.24
2022-10-18T09:32:37.099Z,19.48
2022-10-18T09:42:55.460Z,19.66
2022-10-18T09:53:09.444Z,19.82
2022-10-18T10:03:15.647Z,19.66
2022-10-18T10:13:27.728Z,19.53
2022-10-18T10:23:37.907Z,19.37
2022-10-18T10:33:41.692Z,19.41
2022-10-18T10:43:46.801Z,19.43
2022-10-18T10:53:59.710Z,19.37
2022-10-18T11:04:29.223Z,18.81
2022-10-18T11:14:40.026Z,18.93
2022-10-18T11:24:45.939Z,19.26
2022-10-18T11:35:11.887Z,19.41
2022-10-18T11:55:51.061Z,20.17
2022-10-18T12:05:59.347Z,20.04
2022-10-18T12:16:05.553Z,19.74
2022-10-18T12:26:12.459Z,20.04
2022-10-18T12:36:34.126Z,19.93
2022-10-18T12:46:47.589Z,20.13
2022-10-18T12:56:54.300Z,20.77
2022-10-18T13:17:38.605Z,19.81
2022-10-18T13:27:49.313Z,19.78
2022-10-18T13:38:00.593Z,19.73
2022-10-18T13:48:46.639Z,20.29
2022-10-18T13:59:15.460Z,19.85
2022-10-18T14:19:55.785Z,20.56
2022-10-18T14:30:15.945Z,20.99
2022-10-18T14:40:35.704Z,20.25
2022-10-18T14:50:43.585Z,19.99
2022-10-18T15:01:07.124Z,19.94
2022-10-18T15:11:14.698Z,19.95
2022-10-18T15:21:25.289Z,19.84
2022-10-18T15:31:33.297Z,19.53
2022-10-18T15:41:48.838Z,19.35
2022-10-18T15:52:39.011Z,19.26
2022-10-18T16:02:44.382Z,18.95
2022-10-18T16:12:48.286Z,18.75
2022-10-18T16:22:53.474Z,18.50
2022-10-18T16:32:57.403Z,18.03
2022-10-18T16:43:02.739Z,17.72
2022-10-18T16:53:08.581Z,17.34
2022-10-18T17:03:14.189Z,17.35
2022-10-18T17:13:18.390Z,17.08
2022-10-18T17:23:23.860Z,17.04
2022-10-18T17:33:28.026Z,16.87
2022-10-18T17:43:33.018Z,16.82
2022-10-18T17:53:36.811Z,16.94
2022-10-18T18:03:42.268Z,16.58
2022-10-18T18:13:48.483Z,16.46
2022-10-18T18:23:57.174Z,16.15
2022-10-18T18:34:00.822Z,15.94
2022-10-18T18:44:07.263Z,15.84
2022-10-18T18:54:13.771Z,15.86
2022-10-18T19:04:18.858Z,15.68
2022-10-18T19:14:24.700Z,15.52
2022-10-18T19:24:32.066Z,15.39
2022-10-18T19:34:36.516Z,15.27
2022-10-18T19:44:44.563Z,15.24
2022-10-18T19:54:53.905Z,15.20
2022-10-18T20:05:03.738Z,15.29
2022-10-18T20:15:09.133Z,15.29
2022-10-18T20:25:14.113Z,15.36
2022-10-18T20:35:18.152Z,15.32
2022-10-18T20:45:23.144Z,15.46
2022-10-18T20:55:26.841Z,15.39
2022-10-18T21:05:32.597Z,15.23
2022-10-18T21:15:36.277Z,15.38
2022-10-18T21:25:45.903Z,15.50
2022-10-18T21:35:49.541Z,15.47
2022-10-18T21:45:59.998Z,15.25
2022-10-18T21:56:08.857Z,15.25
2022-10-18T22:06:16.687Z,15.07
2022-10-18T22:16:21.156Z,15.03
2022-10-18T22:26:29.827Z,15.05
2022-10-18T22:36:35.282Z,15.06
2022-10-18T22:46:41.141Z,14.89
2022-10-18T22:56:44.975Z,15.14
2022-10-18T23:06:50.775Z,14.78
2022-10-18T23:16:54.519Z,15.00
2022-10-18T23:26:59.525Z,15.01
2022-10-18T23:37:04.266Z,14.75
2022-10-18T23:47:09.270Z,14.55
2022-10-18T23:57:13.955Z,14.52
